Aviation Digital Data Service (ADDS)

Output produced by METARs form (0645 UTC 03 December 2016)
found at http://aviationweather.gov/adds/metars/
 
KBGR 030536Z 0306/0406 25003KT P6SM -SHRASN SCT035 OVC050 
     FM031000 34007KT P6SM OVC025 
     FM031600 34010KT P6SM OVC035